Time;durP1;ratioP1;P1;durP2;ratioP2;P2;SDS_P1;SDS_P2;PMS_P1;PMS_P2;Temp;Humidity;BMP_temperature;BMP_pressure;BME280_temperature;BME280_humidity;BME280_pressure;Samples;Min_cycle;Max_cycle;Signal;HPM_P1;HPM_P2
2022/02/07 00:00:20;;;;;;;0.60;0.40;;;4.20;99.90;;;;;;5010329;28;20476;-88
2022/02/07 00:05:32;;;;;;;0.50;0.40;;;4.10;99.90;;;;;;5006817;28;20457;-90
2022/02/07 00:08:00;;;;;;;1.03;0.60;;;4.10;99.90;;;;;;5015402;28;20485;-89
2022/02/07 00:10:28;;;;;;;0.80;0.30;;;4.20;99.90;;;;;;5000234;28;20451;-89
2022/02/07 00:15:37;;;;;;;0.50;0.40;;;4.10;99.90;;;;;;4979431;28;20514;-89
2022/02/07 00:18:05;;;;;;;0.80;0.40;;;4.10;99.90;;;;;;4999027;28;20465;-89
2022/02/07 00:20:37;;;;;;;0.60;0.40;;;4.10;99.90;;;;;;4998184;28;20467;-90
2022/02/07 00:23:08;;;;;;;0.70;0.53;;;4.10;99.90;;;;;;4997494;28;20530;-89
2022/02/07 00:25:35;;;;;;;0.63;0.50;;;4.10;99.90;;;;;;4997601;28;20468;-89
2022/02/07 00:28:04;;;;;;;1.60;0.97;;;4.10;99.90;;;;;;4999166;28;20512;-89
2022/02/07 00:30:31;;;;;;;0.70;0.50;;;4.20;99.90;;;;;;4996642;28;20460;-89
2022/02/07 00:33:35;;;;;;;0.80;0.60;;;4.30;99.90;;;;;;4997400;28;20488;-89
2022/02/07 00:36:02;;;;;;;1.10;0.67;;;4.30;99.90;;;;;;5012147;28;20463;-92
2022/02/07 00:38:29;;;;;;;0.50;0.50;;;4.30;99.90;;;;;;5014983;28;20464;-89
2022/02/07 00:41:12;;;;;;;1.47;0.70;;;4.40;99.90;;;;;;5015357;28;20464;-88
2022/02/07 00:43:43;;;;;;;0.57;0.43;;;4.50;99.90;;;;;;4995988;28;20491;-90
2022/02/07 00:46:12;;;;;;;1.00;0.70;;;4.40;99.90;;;;;;5002012;28;20439;-90
2022/02/07 00:48:41;;;;;;;0.80;0.43;;;4.50;99.90;;;;;;5024379;28;20454;-89
2022/02/07 00:51:10;;;;;;;0.90;0.60;;;4.50;99.90;;;;;;5010739;28;20456;-90
2022/02/07 00:53:37;;;;;;;1.60;0.70;;;4.40;99.90;;;;;;5009752;28;20449;-89
2022/02/07 00:56:07;;;;;;;0.60;0.50;;;4.50;99.90;;;;;;4997521;28;20461;-89
2022/02/07 00:58:35;;;;;;;1.50;0.60;;;4.40;99.90;;;;;;5003376;28;20446;-89
2022/02/07 01:01:04;;;;;;;0.70;0.50;;;4.50;99.90;;;;;;4996841;28;20469;-90
2022/02/07 01:03:31;;;;;;;0.50;0.40;;;4.40;99.90;;;;;;4996688;28;20457;-91
2022/02/07 01:05:58;;;;;;;0.67;0.47;;;4.40;99.90;;;;;;4996298;28;20995;-89
2022/02/07 01:08:35;;;;;;;1.20;0.60;;;4.40;99.90;;;;;;4995559;28;20553;-89
2022/02/07 01:11:10;;;;;;;0.60;0.47;;;4.40;99.90;;;;;;4996478;28;20453;-90
2022/02/07 01:13:53;;;;;;;1.60;0.50;;;4.40;99.90;;;;;;4996277;28;20467;-90
2022/02/07 01:16:55;;;;;;;0.70;0.50;;;4.40;99.90;;;;;;5000540;28;20462;-90
2022/02/07 01:19:52;;;;;;;1.10;0.47;;;4.30;99.90;;;;;;4997505;28;21184;-89
2022/02/07 01:22:47;;;;;;;3.53;0.50;;;4.40;99.90;;;;;;4997046;28;20454;-89
2022/02/07 01:50:51;;;;;;;0.77;0.60;;;4.50;99.90;;;;;;4918471;29;20433;-89
2022/02/07 01:53:29;;;;;;;1.63;0.50;;;4.50;99.90;;;;;;4976564;28;20483;-90
2022/02/07 01:55:59;;;;;;;0.60;0.50;;;4.50;99.90;;;;;;4983668;28;20426;-91
2022/02/07 01:58:26;;;;;;;0.70;0.50;;;4.50;99.90;;;;;;4981371;28;21001;-90
2022/02/07 02:00:55;;;;;;;0.80;0.43;;;4.50;99.90;;;;;;4977372;28;20522;-90
2022/02/07 02:03:22;;;;;;;0.93;0.50;;;4.50;99.90;;;;;;4977110;28;20777;-90
2022/02/07 02:06:07;;;;;;;0.70;0.47;;;4.50;99.90;;;;;;4977051;28;20510;-90
2022/02/07 02:08:34;;;;;;;0.90;0.43;;;4.60;99.90;;;;;;4980648;28;20566;-90
2022/02/07 02:11:02;;;;;;;0.70;0.50;;;4.60;99.90;;;;;;4987183;28;20454;-90
2022/02/07 02:13:42;;;;;;;1.07;0.50;;;4.70;99.90;;;;;;4998450;28;20443;-93
2022/02/07 02:16:16;;;;;;;2.67;0.90;;;4.70;99.90;;;;;;4984266;28;20454;-91
2022/02/07 02:35:39;;;;;;;1.63;0.70;;;4.70;99.90;;;;;;4979498;28;20471;-91
2022/02/07 02:38:11;;;;;;;1.27;0.70;;;4.80;99.90;;;;;;4997609;28;20467;-91
2022/02/07 02:46:15;;;;;;;2.90;0.60;;;4.90;99.90;;;;;;5005104;28;20445;-90
2022/02/07 02:48:43;;;;;;;0.70;0.40;;;4.90;99.90;;;;;;5005763;28;20569;-89
2022/02/07 02:51:10;;;;;;;1.27;0.93;;;4.90;99.90;;;;;;5000504;28;20542;-90
2022/02/07 02:53:37;;;;;;;1.80;0.90;;;5.00;99.90;;;;;;5000799;28;20530;-91
2022/02/07 02:56:09;;;;;;;2.10;0.77;;;5.00;99.90;;;;;;5007506;28;20447;-89
2022/02/07 02:58:36;;;;;;;6.00;1.00;;;4.80;99.90;;;;;;5016535;28;20474;-89
2022/02/07 03:01:03;;;;;;;3.93;1.10;;;4.70;99.90;;;;;;5015414;28;20470;-90
2022/02/07 03:03:32;;;;;;;0.70;0.60;;;4.60;99.90;;;;;;5004059;28;20456;-91
2022/02/07 03:06:00;;;;;;;2.20;0.60;;;4.60;99.90;;;;;;4999818;28;20465;-90
2022/02/07 03:08:28;;;;;;;1.47;0.97;;;4.50;99.90;;;;;;4999905;28;20593;-90
2022/02/07 03:11:03;;;;;;;2.40;0.60;;;4.50;99.90;;;;;;4999549;28;20494;-91
2022/02/07 03:13:49;;;;;;;1.83;0.60;;;4.60;99.90;;;;;;4999264;28;20548;-90
2022/02/07 03:16:37;;;;;;;4.07;1.90;;;4.50;99.90;;;;;;5000253;28;20451;-89
2022/02/07 03:19:05;;;;;;;1.13;0.80;;;4.50;99.90;;;;;;5004428;28;20430;-89
2022/02/07 03:21:33;;;;;;;1.27;0.90;;;4.50;99.90;;;;;;5018354;28;20467;-90
2022/02/07 03:24:01;;;;;;;2.00;1.07;;;4.40;99.90;;;;;;5007892;28;20573;-90
2022/02/07 03:26:29;;;;;;;1.27;1.00;;;4.40;99.90;;;;;;4999700;28;20503;-89
2022/02/07 03:28:59;;;;;;;1.40;0.93;;;4.40;99.90;;;;;;4999654;28;21216;-89
2022/02/07 03:31:26;;;;;;;1.77;1.37;;;4.40;99.90;;;;;;4999847;28;20459;-90
2022/02/07 03:33:55;;;;;;;1.63;1.10;;;4.50;99.90;;;;;;4999581;28;20466;-90
2022/02/07 03:36:25;;;;;;;6.30;1.07;;;4.40;99.90;;;;;;4999694;28;20480;-89
2022/02/07 03:38:53;;;;;;;1.57;0.80;;;4.40;99.90;;;;;;4999442;28;20464;-90
2022/02/07 03:41:20;;;;;;;1.07;0.70;;;4.50;99.90;;;;;;4998514;28;20531;-90
2022/02/07 03:43:47;;;;;;;2.23;0.50;;;4.20;99.90;;;;;;4999055;28;20456;-90
2022/02/07 03:47:02;;;;;;;1.03;0.50;;;3.70;99.90;;;;;;4998394;28;20829;-89
2022/02/07 03:49:31;;;;;;;0.87;0.83;;;3.40;99.90;;;;;;5009928;28;20484;-90
2022/02/07 03:51:59;;;;;;;0.90;0.50;;;3.30;99.90;;;;;;4999895;28;20456;-91
2022/02/07 03:54:31;;;;;;;0.60;0.40;;;3.20;99.90;;;;;;5007353;28;20938;-92
2022/02/07 03:57:01;;;;;;;0.87;0.70;;;3.20;99.90;;;;;;5001400;28;20479;-90
2022/02/07 03:59:28;;;;;;;2.10;0.77;;;3.10;99.90;;;;;;5001974;28;20452;-90
2022/02/07 04:01:55;;;;;;;0.60;0.50;;;3.10;99.90;;;;;;5012473;28;20445;-90
2022/02/07 04:04:32;;;;;;;1.00;0.60;;;3.10;99.90;;;;;;5017104;28;20482;-90
2022/02/07 04:07:11;;;;;;;4.82;0.93;;;3.10;99.90;;;;;;5015328;28;20217;-90
2022/02/07 04:09:43;;;;;;;0.93;0.70;;;3.10;99.90;;;;;;5001262;28;20232;-90
2022/02/07 04:12:16;;;;;;;2.67;0.70;;;3.10;99.90;;;;;;4999373;28;20448;-91
2022/02/07 04:14:44;;;;;;;1.50;0.88;;;3.00;99.90;;;;;;4999483;28;20210;-89
2022/02/07 04:17:18;;;;;;;2.88;0.70;;;2.90;99.90;;;;;;4999155;28;20230;-89
2022/02/07 04:19:45;;;;;;;1.03;0.77;;;2.80;99.90;;;;;;5011896;28;20206;-89
2022/02/07 04:22:14;;;;;;;1.85;0.90;;;2.80;99.90;;;;;;5017749;28;20440;-90
2022/02/07 04:24:41;;;;;;;1.50;0.90;;;2.70;99.90;;;;;;5019375;28;20223;-92
2022/02/07 04:27:10;;;;;;;2.10;1.00;;;2.70;99.90;;;;;;5019629;28;20229;-90
2022/02/07 04:29:38;;;;;;;1.27;0.70;;;2.70;99.90;;;;;;5019161;28;20479;-90
2022/02/07 04:32:07;;;;;;;0.60;0.47;;;2.70;99.90;;;;;;5011210;28;20444;-90
2022/02/07 04:34:34;;;;;;;1.47;0.60;;;2.60;99.90;;;;;;5016970;28;20196;-90
2022/02/07 04:37:02;;;;;;;0.75;0.60;;;2.60;99.90;;;;;;5019269;28;20463;-93
2022/02/07 04:39:50;;;;;;;5.32;0.93;;;2.60;99.90;;;;;;5018702;28;20191;-93
2022/02/07 04:42:18;;;;;;;1.05;0.60;;;2.60;99.90;;;;;;5007195;28;20209;-90
2022/02/07 04:44:55;;;;;;;2.20;0.70;;;2.60;99.90;;;;;;5009216;28;20209;-90
2022/02/07 04:47:41;;;;;;;1.80;0.98;;;2.70;99.90;;;;;;5016899;28;20213;-92
2022/02/07 04:50:25;;;;;;;1.98;0.80;;;2.70;99.90;;;;;;4999649;28;20258;-90
2022/02/07 04:58:28;;;;;;;3.50;1.17;;;2.70;99.90;;;;;;5331032;23;20497;-91
2022/02/07 05:01:08;;;;;;;1.30;0.80;;;2.60;99.90;;;;;;4998151;28;20456;-90
2022/02/07 05:03:41;;;;;;;3.17;1.23;;;2.70;99.90;;;;;;4988285;28;20292;-90
2022/02/07 05:14:34;;;;;;;1.98;0.90;;;2.60;99.90;;;;;;4979830;28;20432;-89
2022/02/07 05:20:26;;;;;;;2.80;1.35;;;2.60;99.90;;;;;;4927640;28;20260;-89
2022/02/07 05:22:53;;;;;;;1.00;0.90;;;2.60;99.90;;;;;;4962031;28;20269;-88
2022/02/07 05:25:21;;;;;;;1.75;1.00;;;2.70;99.90;;;;;;4972765;28;20197;-91
2022/02/07 05:27:54;;;;;;;7.37;1.60;;;2.70;99.90;;;;;;4964929;28;20237;-90
2022/02/07 05:30:22;;;;;;;5.83;2.80;;;2.60;99.90;;;;;;4961081;28;20445;-90
2022/02/07 05:32:49;;;;;;;3.15;1.33;;;2.60;99.90;;;;;;4964217;28;20478;-90
2022/02/07 05:35:16;;;;;;;2.00;1.13;;;2.60;99.90;;;;;;4963384;28;20213;-90
2022/02/07 05:37:44;;;;;;;4.82;2.22;;;2.60;99.90;;;;;;4958943;28;20499;-91
2022/02/07 05:40:18;;;;;;;4.57;1.75;;;2.70;99.90;;;;;;4961427;28;20222;-88
2022/02/07 05:42:45;;;;;;;8.93;2.13;;;2.70;99.90;;;;;;4964680;28;20632;-87
2022/02/07 05:45:49;;;;;;;5.50;1.70;;;2.80;99.90;;;;;;4970477;28;20199;-87
2022/02/07 05:48:17;;;;;;;7.83;1.77;;;2.90;99.90;;;;;;4963858;28;20311;-85
2022/02/07 05:50:44;;;;;;;6.90;1.27;;;2.80;99.90;;;;;;4968037;28;20454;-86
2022/02/07 05:53:10;;;;;;;2.05;1.65;;;2.80;99.90;;;;;;4964087;28;20202;-88
2022/02/07 05:55:37;;;;;;;7.20;1.88;;;2.70;99.90;;;;;;4962739;28;20228;-87
2022/02/07 05:58:04;;;;;;;5.18;1.80;;;2.70;99.90;;;;;;4962748;28;20233;-86
2022/02/07 06:00:33;;;;;;;4.30;1.00;;;2.80;99.90;;;;;;4963476;28;20200;-88
2022/02/07 06:02:59;;;;;;;3.75;1.38;;;2.80;99.90;;;;;;4966647;28;20575;-88
2022/02/07 06:05:29;;;;;;;3.60;1.03;;;2.70;99.90;;;;;;4974411;28;20403;-87
2022/02/07 06:07:56;;;;;;;2.47;0.90;;;2.70;99.90;;;;;;4975367;28;20474;-87
2022/02/07 06:10:23;;;;;;;2.20;1.55;;;2.80;99.90;;;;;;4973756;28;20474;-86
2022/02/07 06:12:51;;;;;;;6.88;1.80;;;2.80;99.90;;;;;;4973624;28;20191;-87
2022/02/07 06:15:18;;;;;;;4.65;1.42;;;2.80;99.90;;;;;;4970529;28;20728;-88
2022/02/07 06:17:48;;;;;;;4.50;1.43;;;2.80;99.90;;;;;;4965130;28;20280;-88
2022/02/07 06:20:15;;;;;;;3.37;1.10;;;2.90;99.90;;;;;;4966786;28;20461;-87
2022/02/07 06:22:49;;;;;;;3.13;1.30;;;3.00;99.90;;;;;;4961927;28;20456;-89
2022/02/07 06:25:16;;;;;;;5.20;1.63;;;3.00;99.90;;;;;;4971570;28;20456;-88
2022/02/07 06:27:43;;;;;;;5.00;1.43;;;3.10;99.90;;;;;;4967282;28;20472;-86
2022/02/07 06:30:11;;;;;;;4.93;1.20;;;3.20;99.90;;;;;;4971733;28;20533;-88
2022/02/07 06:32:38;;;;;;;1.80;1.05;;;3.10;99.90;;;;;;4977159;28;20451;-89
2022/02/07 06:35:06;;;;;;;3.20;1.77;;;3.20;99.90;;;;;;4970885;28;20670;-87
2022/02/07 06:37:33;;;;;;;5.10;1.27;;;3.20;99.90;;;;;;4972697;28;20224;-88
2022/02/07 06:40:01;;;;;;;5.55;1.38;;;3.30;99.90;;;;;;4965867;28;20450;-88
2022/02/07 06:45:28;;;;;;;3.67;1.33;;;3.40;99.90;;;;;;4960110;28;20448;-89
2022/02/07 06:47:57;;;;;;;1.80;1.20;;;3.40;99.90;;;;;;4964084;28;20532;-89
2022/02/07 06:50:24;;;;;;;3.80;1.50;;;3.40;99.90;;;;;;4960716;28;20480;-90
2022/02/07 06:53:07;;;;;;;8.37;1.90;;;3.40;99.90;;;;;;4975240;28;20466;-91
2022/02/07 06:55:36;;;;;;;5.67;2.90;;;3.40;99.90;;;;;;4967273;28;20557;-89
2022/02/07 06:58:03;;;;;;;4.27;1.60;;;3.40;99.90;;;;;;4964545;28;20849;-89
2022/02/07 07:00:31;;;;;;;2.30;1.50;;;3.50;99.90;;;;;;4978156;28;20534;-88
2022/02/07 07:03:05;;;;;;;2.90;2.17;;;3.40;99.90;;;;;;4981602;28;20502;-92
2022/02/07 07:05:32;;;;;;;3.90;1.47;;;3.40;99.90;;;;;;4973984;28;20458;-90
2022/02/07 07:08:00;;;;;;;3.27;1.20;;;3.50;99.90;;;;;;4964022;28;20466;-89
2022/02/07 07:10:35;;;;;;;2.90;1.63;;;3.50;99.90;;;;;;4962136;28;20484;-90
2022/02/07 07:13:09;;;;;;;4.57;1.60;;;3.60;99.90;;;;;;4958570;28;20450;-89
2022/02/07 07:15:42;;;;;;;2.77;1.67;;;3.60;99.90;;;;;;4962191;28;20833;-90
2022/02/07 07:18:11;;;;;;;8.60;1.53;;;3.60;99.90;;;;;;4978417;28;20495;-90
2022/02/07 07:20:38;;;;;;;4.40;1.40;;;3.70;99.90;;;;;;4975812;28;20476;-89
2022/02/07 07:23:06;;;;;;;6.30;2.57;;;3.70;99.90;;;;;;4976307;28;20460;-90
2022/02/07 07:25:36;;;;;;;4.93;2.07;;;3.80;99.90;;;;;;4955556;28;20509;-90
2022/02/07 07:28:08;;;;;;;2.47;1.70;;;3.80;99.90;;;;;;4968423;28;20471;-90
2022/02/07 07:30:41;;;;;;;7.30;1.60;;;3.90;99.90;;;;;;4962612;28;20478;-90
2022/02/07 07:33:13;;;;;;;4.60;1.37;;;3.90;99.90;;;;;;4965286;28;20452;-90
2022/02/07 07:35:53;;;;;;;4.60;1.23;;;3.80;99.90;;;;;;4967865;28;20461;-90
2022/02/07 07:38:20;;;;;;;4.83;1.60;;;3.80;99.90;;;;;;4978605;28;20443;-89
2022/02/07 07:40:48;;;;;;;5.10;2.10;;;3.80;99.90;;;;;;4978583;28;20446;-89
2022/02/07 07:43:16;;;;;;;4.17;1.40;;;3.80;99.90;;;;;;4969740;28;20455;-89
2022/02/07 07:45:49;;;;;;;4.93;1.83;;;3.90;99.90;;;;;;4972957;28;20478;-89
2022/02/07 07:48:21;;;;;;;10.83;1.87;;;3.90;99.90;;;;;;4965915;28;20476;-89
2022/02/07 07:50:53;;;;;;;2.93;1.43;;;3.90;99.90;;;;;;4961774;28;20514;-88
2022/02/07 07:53:28;;;;;;;6.90;1.90;;;3.90;99.90;;;;;;4974130;28;20466;-89
2022/02/07 08:01:41;;;;;;;3.77;1.13;;;3.80;99.90;;;;;;4964273;28;20533;-89
2022/02/07 08:04:11;;;;;;;9.53;2.80;;;3.80;99.90;;;;;;4963964;28;20806;-89
2022/02/07 08:06:43;;;;;;;3.67;1.50;;;3.90;99.90;;;;;;4968341;28;20569;-90
2022/02/07 08:09:21;;;;;;;2.67;1.50;;;4.00;99.90;;;;;;4974046;28;20467;-90
2022/02/07 08:11:48;;;;;;;4.57;1.83;;;4.00;99.90;;;;;;4970938;28;20453;-90
2022/02/07 08:14:16;;;;;;;3.07;1.40;;;4.10;99.90;;;;;;4968220;28;20461;-88
2022/02/07 08:16:46;;;;;;;4.90;2.47;;;4.30;99.90;;;;;;4958283;28;20849;-91
2022/02/07 08:19:17;;;;;;;4.53;2.10;;;4.40;99.90;;;;;;4968668;28;20448;-91
2022/02/07 08:21:43;;;;;;;9.43;2.87;;;4.50;99.90;;;;;;5000857;23;20514;-83
2022/02/07 08:24:10;;;;;;;8.10;4.93;;;4.60;99.90;;;;;;4979281;28;20478;-85
2022/02/07 08:26:38;;;;;;;4.13;1.80;;;4.70;99.90;;;;;;4985254;28;20938;-85
2022/02/07 08:29:04;;;;;;;4.70;2.00;;;4.80;99.90;;;;;;4973036;28;20519;-84
2022/02/07 08:31:32;;;;;;;4.23;1.90;;;4.80;99.90;;;;;;4974536;28;20472;-85
2022/02/07 08:33:59;;;;;;;5.67;1.50;;;4.90;99.90;;;;;;4965223;28;20510;-85
2022/02/07 08:36:26;;;;;;;4.37;2.63;;;5.20;99.90;;;;;;4963510;28;20504;-84
2022/02/07 08:38:52;;;;;;;2.80;1.37;;;5.60;99.90;;;;;;4961861;28;20512;-85
2022/02/07 08:41:19;;;;;;;3.17;1.27;;;5.80;99.90;;;;;;4966047;28;20472;-85
2022/02/07 08:43:46;;;;;;;6.40;2.27;;;5.90;99.90;;;;;;4963703;28;20455;-85
2022/02/07 08:46:13;;;;;;;2.10;1.30;;;5.80;99.90;;;;;;4966200;28;20450;-85
2022/02/07 08:48:42;;;;;;;7.13;1.70;;;5.80;99.90;;;;;;4974404;28;20455;-85
2022/02/07 08:51:08;;;;;;;6.30;1.77;;;6.10;99.90;;;;;;4964780;28;20457;-84
2022/02/07 08:53:39;;;;;;;3.43;1.30;;;6.30;99.90;;;;;;4964195;28;20448;-84
2022/02/07 08:56:08;;;;;;;7.73;1.67;;;6.20;99.90;;;;;;4970605;28;21113;-86
2022/02/07 08:58:37;;;;;;;2.93;1.30;;;6.30;99.90;;;;;;4960541;28;20479;-85
2022/02/07 09:01:12;;;;;;;5.07;2.13;;;6.50;99.90;;;;;;4959034;28;20524;-85
2022/02/07 09:06:37;;;;;;;6.70;2.80;;;6.60;99.90;;;;;;4965025;28;20452;-85
2022/02/07 09:09:10;;;;;;;4.87;1.60;;;6.40;99.90;;;;;;4959267;28;20451;-85
2022/02/07 09:11:40;;;;;;;9.20;1.60;;;6.50;99.90;;;;;;4960713;28;20507;-82
2022/02/07 09:14:12;;;;;;;5.93;2.63;;;6.70;99.90;;;;;;4965176;28;20448;-80
2022/02/07 09:16:45;;;;;;;3.23;1.73;;;6.70;99.90;;;;;;4977427;28;20522;-81
2022/02/07 09:19:15;;;;;;;5.97;2.13;;;6.70;99.90;;;;;;4975309;28;20452;-89
2022/02/07 09:21:42;;;;;;;7.83;2.97;;;6.70;99.90;;;;;;4991831;28;20471;-85
2022/02/07 09:24:09;;;;;;;3.93;1.97;;;6.70;99.90;;;;;;4983298;28;20449;-85
2022/02/07 09:26:36;;;;;;;2.70;1.70;;;6.70;99.90;;;;;;4981955;28;20437;-85
2022/02/07 09:29:03;;;;;;;3.27;1.90;;;6.60;99.90;;;;;;4971062;28;20445;-87
2022/02/07 09:31:30;;;;;;;1.93;1.50;;;6.80;99.90;;;;;;4961435;28;20468;-86
2022/02/07 09:33:56;;;;;;;2.83;1.47;;;6.90;99.90;;;;;;4960916;28;20499;-86
2022/02/07 09:36:25;;;;;;;6.90;1.53;;;7.10;99.90;;;;;;4963187;28;20444;-86
2022/02/07 09:38:53;;;;;;;2.53;1.20;;;7.30;99.90;;;;;;4975137;28;20440;-84
2022/02/07 09:41:21;;;;;;;6.33;2.20;;;7.30;99.80;;;;;;4964130;28;20503;-84
2022/02/07 09:43:50;;;;;;;5.27;1.47;;;7.30;99.70;;;;;;4962415;28;20469;-84
2022/02/07 09:46:33;;;;;;;6.03;2.20;;;7.40;99.70;;;;;;4963790;28;20445;-83
2022/02/07 09:49:01;;;;;;;4.70;2.33;;;7.40;99.40;;;;;;4960476;28;20457;-83
2022/02/07 09:51:29;;;;;;;6.47;2.33;;;7.60;99.20;;;;;;4958601;28;20471;-86
2022/02/07 09:53:57;;;;;;;3.90;2.37;;;7.90;98.80;;;;;;4966993;28;20879;-84
2022/02/07 09:56:24;;;;;;;8.53;2.87;;;8.10;98.50;;;;;;4968463;28;20421;-83
2022/02/07 09:58:53;;;;;;;8.17;4.67;;;7.80;97.40;;;;;;4977119;28;20818;-84
2022/02/07 10:01:28;;;;;;;4.30;1.57;;;7.90;97.90;;;;;;4962564;28;20842;-84
2022/02/07 10:04:00;;;;;;;5.30;1.70;;;8.00;97.80;;;;;;4961881;28;20455;-85
2022/02/07 10:09:21;;;;;;;7.33;2.40;;;8.30;97.90;;;;;;4955318;28;20460;-85
2022/02/07 10:12:02;;;;;;;7.20;1.93;;;8.70;97.00;;;;;;4964713;28;20476;-85
2022/02/07 10:14:35;;;;;;;6.87;3.50;;;9.00;96.00;;;;;;4964156;28;20502;-86
2022/02/07 10:17:19;;;;;;;8.90;3.07;;;9.40;95.60;;;;;;4966947;28;20545;-87
2022/02/07 10:19:58;;;;;;;3.90;2.23;;;9.60;94.60;;;;;;4961356;28;20508;-84
2022/02/07 10:22:55;;;;;;;4.30;1.80;;;9.00;94.10;;;;;;4961884;28;20456;-85
2022/02/07 10:39:58;;;;;;;6.73;2.27;;;8.30;94.80;;;;;;4956646;28;20495;-85
2022/02/07 10:42:45;;;;;;;5.87;2.23;;;8.30;95.20;;;;;;4974134;28;20515;-83
2022/02/07 10:45:12;;;;;;;5.73;2.57;;;8.50;95.20;;;;;;4964047;28;20452;-86
2022/02/07 10:47:42;;;;;;;8.47;1.97;;;9.00;95.20;;;;;;4973061;28;20464;-85
2022/02/07 10:50:12;;;;;;;5.37;2.23;;;10.20;93.60;;;;;;4968863;28;21024;-85
2022/02/07 10:52:50;;;;;;;5.77;1.53;;;11.20;91.70;;;;;;4965377;28;20457;-85
2022/02/07 10:55:22;;;;;;;5.03;1.70;;;13.40;87.10;;;;;;4970052;28;20508;-86
2022/02/07 10:57:52;;;;;;;5.83;1.90;;;14.20;81.70;;;;;;4980521;28;20441;-85
2022/02/07 11:00:24;;;;;;;6.50;2.60;;;15.30;75.00;;;;;;4976860;28;20473;-85
2022/02/07 11:03:02;;;;;;;5.60;1.93;;;14.60;72.10;;;;;;4968084;28;20958;-85
2022/02/07 11:05:35;;;;;;;7.03;2.13;;;13.20;73.20;;;;;;4978823;28;20495;-85
2022/02/07 11:08:19;;;;;;;4.43;2.10;;;13.00;76.10;;;;;;4979298;28;20449;-84
2022/02/07 11:13:58;;;;;;;6.23;1.90;;;11.90;78.60;;;;;;5127007;27;20527;-85
2022/02/07 11:16:42;;;;;;;5.53;2.27;;;11.40;78.90;;;;;;5104619;28;20449;-86
2022/02/07 11:19:38;;;;;;;5.20;2.17;;;11.00;80.10;;;;;;5107274;28;20446;-85
2022/02/07 11:22:11;;;;;;;5.20;1.30;;;10.30;81.30;;;;;;5089296;28;20473;-85
2022/02/07 11:25:06;;;;;;;8.90;2.27;;;9.80;83.60;;;;;;5086433;28;20447;-85
2022/02/07 11:27:37;;;;;;;14.90;7.20;;;9.50;85.50;;;;;;5083613;28;20443;-83
2022/02/07 11:30:10;;;;;;;7.00;1.90;;;9.20;87.00;;;;;;5108185;28;20443;-85
2022/02/07 11:32:54;;;;;;;10.47;3.17;;;9.10;87.70;;;;;;5081406;28;21162;-86
2022/02/07 11:35:24;;;;;;;11.80;2.27;;;8.80;87.50;;;;;;5103068;28;20443;-86
2022/02/07 11:37:54;;;;;;;8.77;1.77;;;8.50;89.30;;;;;;5081558;28;20438;-87
2022/02/07 11:40:29;;;;;;;5.67;2.93;;;8.30;89.60;;;;;;5093961;28;20448;-86
2022/02/07 11:43:10;;;;;;;5.50;1.90;;;8.10;90.10;;;;;;5096517;28;20438;-85
2022/02/07 11:45:50;;;;;;;5.40;2.70;;;7.90;90.70;;;;;;5094277;28;20462;-85
2022/02/07 11:48:19;;;;;;;4.47;1.77;;;7.70;91.10;;;;;;5091454;28;20858;-84
2022/02/07 11:50:46;;;;;;;10.30;4.73;;;7.60;90.80;;;;;;5098530;28;20446;-83
2022/02/07 11:53:16;;;;;;;8.80;3.07;;;7.40;91.20;;;;;;5100041;28;20466;-85
2022/02/07 11:55:48;;;;;;;5.03;2.37;;;7.40;91.50;;;;;;5083816;28;20446;-86
2022/02/07 11:58:22;;;;;;;11.17;3.50;;;7.30;91.80;;;;;;5083819;28;20443;-88
2022/02/07 12:00:57;;;;;;;12.13;3.60;;;7.40;92.10;;;;;;5084194;28;20476;-85
2022/02/07 12:03:25;;;;;;;4.83;2.70;;;7.40;91.70;;;;;;5084605;28;20446;-85
2022/02/07 12:05:53;;;;;;;3.70;1.70;;;7.30;91.60;;;;;;5084882;28;20519;-85
2022/02/07 12:08:21;;;;;;;8.40;2.63;;;7.30;91.80;;;;;;5082427;28;20443;-86
2022/02/07 12:11:05;;;;;;;6.80;1.90;;;7.30;92.10;;;;;;5097213;28;20443;-86
2022/02/07 12:13:35;;;;;;;4.97;2.23;;;7.30;91.80;;;;;;5078343;28;20485;-85
2022/02/07 12:16:12;;;;;;;6.43;2.53;;;7.20;92.20;;;;;;5076230;28;20451;-86
2022/02/07 12:18:38;;;;;;;10.57;2.63;;;7.30;92.20;;;;;;5079999;28;20452;-86
2022/02/07 12:21:23;;;;;;;12.80;3.03;;;7.30;92.20;;;;;;5078848;28;20974;-85
2022/02/07 12:23:53;;;;;;;11.53;4.50;;;7.30;92.10;;;;;;5076771;28;20983;-87
2022/02/07 12:26:20;;;;;;;12.43;4.73;;;7.30;91.70;;;;;;5052516;28;20494;-86
2022/02/07 12:28:49;;;;;;;5.87;2.40;;;7.30;92.10;;;;;;5077062;28;20432;-86
2022/02/07 12:31:20;;;;;;;10.50;3.00;;;7.50;92.20;;;;;;5073870;28;20526;-87
2022/02/07 12:33:54;;;;;;;5.33;2.60;;;7.60;92.00;;;;;;5074598;28;20483;-85
2022/02/07 12:36:21;;;;;;;4.87;1.97;;;7.70;92.00;;;;;;5069006;28;20523;-87
2022/02/07 12:38:48;;;;;;;3.40;1.63;;;7.80;91.70;;;;;;5070820;28;20455;-85
2022/02/07 12:41:18;;;;;;;8.70;2.30;;;7.90;91.40;;;;;;5064156;28;20524;-86
2022/02/07 12:43:49;;;;;;;10.70;2.10;;;8.00;91.70;;;;;;5072143;28;20531;-86
2022/02/07 12:46:20;;;;;;;3.23;1.77;;;8.00;91.50;;;;;;5062873;28;20449;-85
2022/02/07 12:48:55;;;;;;;6.53;1.80;;;7.90;91.30;;;;;;5067084;28;21018;-86
2022/02/07 12:51:24;;;;;;;12.87;3.73;;;7.90;91.20;;;;;;5080950;28;20453;-86
2022/02/07 12:53:53;;;;;;;4.37;1.93;;;8.00;91.40;;;;;;5083156;28;20475;-88
2022/02/07 12:56:22;;;;;;;7.90;2.90;;;8.00;90.70;;;;;;5085384;28;20459;-88
2022/02/07 12:58:50;;;;;;;8.17;2.60;;;8.00;91.30;;;;;;5080846;28;20547;-88
2022/02/07 13:01:28;;;;;;;6.00;2.40;;;8.10;91.50;;;;;;5077994;28;20554;-87
2022/02/07 13:03:58;;;;;;;4.10;2.40;;;8.20;91.30;;;;;;5073420;28;20459;-89
2022/02/07 13:06:27;;;;;;;9.00;3.97;;;8.20;91.40;;;;;;5075696;28;20443;-88
2022/02/07 13:08:55;;;;;;;8.63;2.43;;;8.10;91.30;;;;;;5074248;28;20447;-88
2022/02/07 13:11:25;;;;;;;7.40;2.50;;;8.10;91.60;;;;;;5063892;28;20858;-87
2022/02/07 13:13:53;;;;;;;5.23;1.93;;;8.00;91.60;;;;;;5061169;28;20848;-87
2022/02/07 13:16:25;;;;;;;4.93;1.83;;;8.00;91.70;;;;;;5084933;28;20447;-89
2022/02/07 13:18:55;;;;;;;11.30;5.40;;;7.90;92.10;;;;;;5089170;28;20444;-88
2022/02/07 13:21:24;;;;;;;10.13;4.13;;;7.80;91.90;;;;;;5069700;28;20456;-90
2022/02/07 13:24:10;;;;;;;3.73;2.20;;;7.70;92.30;;;;;;5083582;28;20443;-87
2022/02/07 13:26:38;;;;;;;8.20;3.03;;;7.70;92.50;;;;;;5092734;28;20432;-86
2022/02/07 13:29:10;;;;;;;6.17;2.20;;;7.70;92.70;;;;;;5088305;28;20453;-90
2022/02/07 13:31:39;;;;;;;6.47;2.57;;;7.80;92.70;;;;;;5090534;28;20605;-87
2022/02/07 13:34:33;;;;;;;5.27;2.83;;;7.80;92.50;;;;;;5067060;28;20472;-88
2022/02/07 13:37:28;;;;;;;;;;;;;;;;;;;;;
2022/02/07 13:40:12;;;;;;;7.43;3.70;;;7.70;92.50;;;;;;5064400;28;20483;-89
2022/02/07 13:42:47;;;;;;;9.30;3.13;;;7.60;93.00;;;;;;5081031;28;20436;-89
2022/02/07 13:45:30;;;;;;;4.77;2.50;;;7.90;93.60;;;;;;5086496;28;20475;-90
2022/02/07 13:48:24;;;;;;;7.37;3.90;;;8.30;93.10;;;;;;5074414;28;20439;-90
2022/02/07 13:50:53;;;;;;;9.27;5.30;;;8.40;92.40;;;;;;5080725;28;20910;-90
2022/02/07 13:59:51;;;;;;;3.90;1.97;;;7.90;92.90;;;;;;5066001;28;20421;-90
2022/02/07 14:02:28;;;;;;;4.97;2.73;;;7.90;92.70;;;;;;5088332;28;20483;-90
2022/02/07 14:05:00;;;;;;;5.17;2.77;;;7.90;92.80;;;;;;5092042;28;20439;-91
2022/02/07 14:07:27;;;;;;;4.77;2.03;;;7.90;92.80;;;;;;5082154;28;20458;-89
2022/02/07 14:09:56;;;;;;;12.50;5.30;;;7.90;92.70;;;;;;5057693;28;20448;-89
2022/02/07 14:12:38;;;;;;;7.20;3.33;;;8.00;93.10;;;;;;5065912;28;20512;-89
2022/02/07 14:15:19;;;;;;;7.90;4.33;;;7.90;92.60;;;;;;5067614;28;20539;-89
2022/02/07 14:17:46;;;;;;;14.40;6.67;;;8.00;93.00;;;;;;5060311;28;20478;-90
2022/02/07 14:20:19;;;;;;;9.57;3.43;;;8.10;93.00;;;;;;5064428;28;20922;-90
2022/02/07 14:22:46;;;;;;;5.33;2.80;;;8.20;92.60;;;;;;5062277;28;20452;-90
2022/02/07 14:25:14;;;;;;;9.27;3.83;;;8.60;92.00;;;;;;5080693;28;20506;-90
2022/02/07 14:27:41;;;;;;;4.83;3.83;;;9.30;91.10;;;;;;5066347;28;20526;-91
2022/02/07 14:30:09;;;;;;;10.23;3.60;;;9.50;90.40;;;;;;5061438;28;20463;-89
2022/02/07 14:32:36;;;;;;;4.77;1.80;;;9.40;90.30;;;;;;5062939;28;20548;-90
2022/02/07 14:35:04;;;;;;;6.20;2.70;;;9.20;90.40;;;;;;5062797;28;20974;-90
2022/02/07 14:37:41;;;;;;;4.50;2.90;;;9.00;91.00;;;;;;5083707;28;20431;-90
2022/02/07 14:40:10;;;;;;;5.50;2.40;;;8.80;91.50;;;;;;5069662;28;20459;-91
2022/02/07 14:42:37;;;;;;;6.73;2.50;;;9.00;91.20;;;;;;5080661;28;20578;-90
2022/02/07 14:45:31;;;;;;;5.43;1.97;;;9.20;91.20;;;;;;5063044;28;20436;-90
2022/02/07 14:48:09;;;;;;;6.97;2.50;;;9.50;90.60;;;;;;5069835;28;20447;-90
2022/02/07 14:50:43;;;;;;;8.73;2.67;;;9.30;90.30;;;;;;5063973;28;20643;-91
2022/02/07 14:53:13;;;;;;;7.70;2.70;;;9.30;91.00;;;;;;5057046;28;20474;-89
2022/02/07 14:56:00;;;;;;;11.03;4.03;;;9.30;91.30;;;;;;5061042;28;20808;-90
2022/02/07 14:58:37;;;;;;;4.63;2.73;;;8.90;90.10;;;;;;5070143;28;20451;-89
2022/02/07 15:01:04;;;;;;;11.93;3.10;;;8.70;90.90;;;;;;5056471;28;20464;-89
2022/02/07 15:03:37;;;;;;;7.60;1.93;;;8.60;91.00;;;;;;5078813;28;20440;-89
2022/02/07 15:06:05;;;;;;;4.73;1.67;;;8.60;90.80;;;;;;5067032;28;20448;-89
2022/02/07 15:08:34;;;;;;;8.30;2.57;;;8.50;90.50;;;;;;5079017;28;20425;-90
2022/02/07 15:11:06;;;;;;;5.33;2.23;;;8.30;90.80;;;;;;5090131;28;20520;-89